Time;durP1;ratioP1;P1;durP2;ratioP2;P2;SDS_P1;SDS_P2;PMS_P1;PMS_P2;Temp;Humidity;BMP_temperature;BMP_pressure;BME280_temperature;BME280_humidity;BME280_pressure;Samples;Min_cycle;Max_cycle;Signal;HPM_P1;HPM_P2
2024/01/08 00:00:48;;;;;;;1.73;1.27;;;;;;;;;;5052635;28;20070;-84
2024/01/08 00:03:26;;;;;;;4.55;2.00;;;;;;;;;;5052002;28;20021;-86
2024/01/08 00:05:51;;;;;;;1.95;1.73;;;;;;;;;;5051180;28;20088;-85
2024/01/08 00:08:20;;;;;;;1.48;1.33;;;;;;;;;;5052781;28;20116;-84
2024/01/08 00:10:49;;;;;;;2.92;1.45;;;;;;;;;;5051072;28;20029;-84
2024/01/08 00:13:14;;;;;;;3.30;1.73;;;;;;;;;;5052135;28;20060;-84
2024/01/08 00:15:42;;;;;;;3.28;2.28;;;;;;;;;;5050507;28;20485;-84
2024/01/08 00:18:10;;;;;;;3.58;2.03;;;;;;;;;;5035468;28;20578;-84
2024/01/08 00:20:36;;;;;;;2.47;1.83;;;;;;;;;;5051415;28;20520;-86
2024/01/08 00:23:12;;;;;;;1.33;1.15;;;;;;;;;;5053033;28;20029;-86
2024/01/08 00:25:48;;;;;;;2.33;0.90;;;;;;;;;;5053493;28;20025;-85
2024/01/08 00:28:14;;;;;;;0.60;0.60;;;;;;;;;;5051643;28;20032;-86
2024/01/08 00:30:39;;;;;;;2.25;1.67;;;;;;;;;;5053548;28;20021;-87
2024/01/08 00:33:10;;;;;;;1.85;1.63;;;;;;;;;;5053137;28;20028;-86
2024/01/08 00:35:38;;;;;;;4.38;1.45;;;;;;;;;;5051239;28;20032;-86
2024/01/08 00:38:11;;;;;;;0.75;0.63;;;;;;;;;;5052809;28;20033;-87
2024/01/08 00:40:42;;;;;;;1.85;1.23;;;;;;;;;;5035463;28;20377;-85
2024/01/08 00:43:16;;;;;;;3.10;1.20;;;;;;;;;;5051932;28;20025;-84
2024/01/08 00:45:44;;;;;;;1.30;0.98;;;;;;;;;;5051810;28;20477;-85
2024/01/08 00:48:12;;;;;;;1.35;0.80;;;;;;;;;;5035808;28;20041;-84
2024/01/08 00:50:37;;;;;;;1.35;1.10;;;;;;;;;;5034207;28;20033;-85
2024/01/08 00:53:09;;;;;;;1.42;1.33;;;;;;;;;;5051263;28;20033;-83
2024/01/08 00:55:34;;;;;;;1.30;1.13;;;;;;;;;;5034584;28;20043;-84
2024/01/08 00:58:02;;;;;;;0.55;0.55;;;;;;;;;;5050821;28;20033;-85
2024/01/08 01:00:28;;;;;;;0.73;0.40;;;;;;;;;;5053857;28;20016;-85
2024/01/08 01:03:00;;;;;;;0.30;0.30;;;;;;;;;;5051641;28;20390;-86
2024/01/08 01:05:25;;;;;;;0.55;0.52;;;;;;;;;;5052218;28;20366;-85
2024/01/08 01:07:56;;;;;;;0.17;0.17;;;;;;;;;;5052128;28;20029;-84
2024/01/08 01:10:22;;;;;;;0.63;0.63;;;;;;;;;;5032383;28;20452;-86
2024/01/08 01:12:50;;;;;;;0.57;0.57;;;;;;;;;;5033096;28;20029;-85
2024/01/08 01:15:16;;;;;;;0.50;0.50;;;;;;;;;;5033102;28;20029;-85
2024/01/08 01:17:41;;;;;;;0.22;0.22;;;;;;;;;;5053330;28;20519;-84
2024/01/08 01:20:10;;;;;;;1.27;0.82;;;;;;;;;;5051955;28;20488;-84
2024/01/08 01:22:42;;;;;;;0.63;0.50;;;;;;;;;;5070277;28;20567;-84
2024/01/08 01:25:07;;;;;;;0.30;0.30;;;;;;;;;;5069981;28;20048;-84
2024/01/08 01:27:33;;;;;;;0.60;0.60;;;;;;;;;;5070639;28;20101;-84
2024/01/08 01:30:04;;;;;;;0.77;0.65;;;;;;;;;;5055395;28;20437;-83
2024/01/08 01:32:35;;;;;;;0.30;0.30;;;;;;;;;;5069452;28;20530;-84
2024/01/08 01:35:01;;;;;;;0.70;0.70;;;;;;;;;;5071437;28;20082;-83
2024/01/08 01:37:26;;;;;;;1.67;0.82;;;;;;;;;;5052557;28;20428;-84
2024/01/08 01:40:03;;;;;;;0.63;0.40;;;;;;;;;;5071258;28;20031;-83
2024/01/08 01:42:29;;;;;;;3.80;0.98;;;;;;;;;;5071822;28;20036;-83
2024/01/08 01:44:54;;;;;;;0.60;0.60;;;;;;;;;;5052158;28;20045;-83
2024/01/08 01:47:25;;;;;;;0.75;0.73;;;;;;;;;;5071960;28;20033;-85
2024/01/08 01:49:54;;;;;;;1.67;0.52;;;;;;;;;;5068711;28;20380;-84
2024/01/08 01:52:24;;;;;;;1.27;0.82;;;;;;;;;;5070758;28;20028;-82
2024/01/08 01:54:51;;;;;;;0.80;0.80;;;;;;;;;;5051238;28;20047;-84
2024/01/08 01:57:17;;;;;;;5.97;0.90;;;;;;;;;;5069414;28;20035;-83
2024/01/08 01:59:46;;;;;;;0.32;0.32;;;;;;;;;;5069085;28;20028;-83
2024/01/08 02:02:14;;;;;;;1.23;0.55;;;;;;;;;;5052973;28;20610;-83
2024/01/08 02:04:42;;;;;;;1.00;0.77;;;;;;;;;;5072603;28;20035;-84
2024/01/08 02:07:08;;;;;;;0.73;0.55;;;;;;;;;;5070145;28;20025;-82
2024/01/08 02:09:34;;;;;;;0.82;0.82;;;;;;;;;;5052222;28;20035;-81
2024/01/08 02:11:59;;;;;;;3.83;1.02;;;;;;;;;;5067270;28;20044;-81
2024/01/08 02:14:27;;;;;;;1.08;0.63;;;;;;;;;;5070609;28;20495;-85
2024/01/08 02:16:53;;;;;;;0.73;0.63;;;;;;;;;;5053307;28;20028;-81
2024/01/08 02:19:21;;;;;;;0.45;0.45;;;;;;;;;;5069553;28;20066;-81
2024/01/08 02:21:46;;;;;;;1.23;1.02;;;;;;;;;;5070438;28;20125;-82
2024/01/08 02:24:12;;;;;;;0.43;0.43;;;;;;;;;;5070421;28;20127;-81
2024/01/08 02:26:37;;;;;;;0.50;0.50;;;;;;;;;;5072022;28;20107;-80
2024/01/08 02:29:03;;;;;;;0.43;0.43;;;;;;;;;;5069107;28;20035;-81
2024/01/08 02:31:29;;;;;;;0.28;0.28;;;;;;;;;;5070544;28;20036;-82
2024/01/08 02:33:54;;;;;;;0.50;0.50;;;;;;;;;;5069365;28;20036;-82
2024/01/08 02:36:19;;;;;;;0.30;0.30;;;;;;;;;;5070293;28;20115;-80
2024/01/08 02:38:45;;;;;;;0.38;0.38;;;;;;;;;;5070152;28;20028;-82
2024/01/08 02:41:11;;;;;;;0.30;0.30;;;;;;;;;;5070381;28;20453;-80
2024/01/08 02:43:36;;;;;;;0.50;0.50;;;;;;;;;;5069543;28;20157;-81
2024/01/08 02:46:02;;;;;;;1.17;0.90;;;;;;;;;;5069700;28;20047;-82
2024/01/08 02:48:31;;;;;;;0.43;0.43;;;;;;;;;;5070867;28;20025;-82
2024/01/08 02:50:56;;;;;;;0.77;0.77;;;;;;;;;;5069318;28;20041;-81
2024/01/08 02:53:21;;;;;;;0.35;0.32;;;;;;;;;;5070429;28;20376;-82
2024/01/08 02:55:50;;;;;;;0.20;0.20;;;;;;;;;;5071159;28;20033;-81
2024/01/08 02:58:15;;;;;;;0.25;0.25;;;;;;;;;;5064791;28;20025;-83
2024/01/08 03:00:41;;;;;;;0.30;0.30;;;;;;;;;;5070769;28;20384;-81
2024/01/08 03:03:06;;;;;;;0.45;0.35;;;;;;;;;;5071246;28;20036;-80
2024/01/08 03:05:32;;;;;;;0.30;0.30;;;;;;;;;;5069703;28;20056;-80
2024/01/08 03:07:57;;;;;;;0.20;0.20;;;;;;;;;;5071766;28;20020;-82
2024/01/08 03:10:23;;;;;;;0.15;0.15;;;;;;;;;;5070590;28;20102;-81
2024/01/08 03:12:48;;;;;;;0.28;0.28;;;;;;;;;;5072861;28;20082;-83
2024/01/08 03:15:13;;;;;;;0.73;0.60;;;;;;;;;;5072831;28;20481;-82
2024/01/08 03:17:39;;;;;;;0.30;0.30;;;;;;;;;;5074409;28;20024;-82
2024/01/08 03:20:08;;;;;;;0.13;0.13;;;;;;;;;;5074254;28;20032;-82
2024/01/08 03:22:39;;;;;;;0.20;0.20;;;;;;;;;;5074119;28;20059;-83
2024/01/08 03:25:05;;;;;;;0.73;0.73;;;;;;;;;;5073073;28;20032;-83
2024/01/08 03:27:30;;;;;;;0.20;0.20;;;;;;;;;;5070438;28;20029;-82
2024/01/08 03:29:56;;;;;;;0.30;0.30;;;;;;;;;;5074080;28;20082;-83
2024/01/08 03:32:21;;;;;;;0.47;0.30;;;;;;;;;;5072752;28;20086;-82
2024/01/08 03:34:47;;;;;;;1.08;0.75;;;;;;;;;;5073703;28;20090;-82
2024/01/08 03:37:12;;;;;;;0.40;0.40;;;;;;;;;;5074348;28;20101;-82
2024/01/08 03:39:37;;;;;;;0.32;0.32;;;;;;;;;;5073129;28;20025;-83
2024/01/08 03:42:11;;;;;;;0.50;0.50;;;;;;;;;;5071457;28;20531;-84
2024/01/08 03:44:36;;;;;;;1.95;0.85;;;;;;;;;;5072674;28;20036;-82
2024/01/08 03:47:01;;;;;;;0.38;0.38;;;;;;;;;;5070995;28;20025;-83
2024/01/08 03:49:27;;;;;;;0.30;0.30;;;;;;;;;;5054686;28;20041;-84
2024/01/08 03:51:52;;;;;;;0.60;0.45;;;;;;;;;;5053679;28;20032;-83
2024/01/08 03:54:18;;;;;;;0.47;0.47;;;;;;;;;;5073631;28;20031;-83
2024/01/08 03:56:44;;;;;;;0.20;0.20;;;;;;;;;;5073749;28;20032;-82
2024/01/08 03:59:12;;;;;;;0.82;0.70;;;;;;;;;;5070268;28;20036;-83
2024/01/08 04:01:45;;;;;;;0.57;0.32;;;;;;;;;;5072562;28;20107;-81
2024/01/08 04:04:14;;;;;;;0.98;0.95;;;;;;;;;;5073146;28;20361;-82
2024/01/08 04:06:40;;;;;;;0.43;0.43;;;;;;;;;;5074690;28;20099;-83
2024/01/08 04:09:05;;;;;;;0.47;0.47;;;;;;;;;;5074421;28;20111;-82
2024/01/08 04:11:31;;;;;;;0.90;0.60;;;;;;;;;;5056222;28;20027;-81
2024/01/08 04:13:56;;;;;;;1.58;0.50;;;;;;;;;;5072771;28;20419;-82
2024/01/08 04:16:22;;;;;;;0.55;0.55;;;;;;;;;;5053324;28;20032;-81
2024/01/08 04:18:47;;;;;;;0.90;0.57;;;;;;;;;;5052859;28;20071;-83
2024/01/08 04:21:19;;;;;;;1.15;0.90;;;;;;;;;;5070462;28;20672;-81
2024/01/08 04:23:47;;;;;;;0.13;0.13;;;;;;;;;;5055505;28;20365;-81
2024/01/08 04:26:18;;;;;;;0.30;0.30;;;;;;;;;;5071544;28;20051;-82
2024/01/08 04:28:47;;;;;;;0.20;0.20;;;;;;;;;;5072315;28;20452;-85
2024/01/08 04:31:20;;;;;;;0.50;0.50;;;;;;;;;;5070713;28;20040;-84
2024/01/08 04:33:46;;;;;;;0.57;0.57;;;;;;;;;;5055485;28;20461;-82
2024/01/08 04:36:13;;;;;;;0.57;0.35;;;;;;;;;;5070039;28;20419;-80
2024/01/08 04:38:39;;;;;;;0.35;0.30;;;;;;;;;;5054536;28;20384;-83
2024/01/08 04:41:05;;;;;;;0.35;0.35;;;;;;;;;;5052766;28;20036;-81
2024/01/08 04:43:30;;;;;;;0.82;0.63;;;;;;;;;;5071276;28;20025;-80
2024/01/08 04:45:56;;;;;;;0.47;0.47;;;;;;;;;;5071882;28;20032;-81
2024/01/08 04:48:21;;;;;;;0.20;0.20;;;;;;;;;;5071572;28;20036;-84
2024/01/08 04:50:48;;;;;;;0.50;0.50;;;;;;;;;;5071936;28;20070;-82
2024/01/08 04:53:13;;;;;;;0.52;0.45;;;;;;;;;;5069590;28;20114;-83
2024/01/08 04:55:39;;;;;;;0.50;0.40;;;;;;;;;;5069352;28;20031;-80
2024/01/08 04:58:08;;;;;;;0.35;0.32;;;;;;;;;;5071635;28;20020;-82
2024/01/08 05:00:34;;;;;;;0.57;0.52;;;;;;;;;;5056115;28;20032;-83
2024/01/08 05:03:02;;;;;;;1.25;0.57;;;;;;;;;;5071686;28;20385;-81
2024/01/08 05:05:33;;;;;;;0.88;0.70;;;;;;;;;;5069816;28;20025;-83
2024/01/08 05:07:58;;;;;;;0.60;0.60;;;;;;;;;;5070284;28;20498;-81
2024/01/08 05:10:23;;;;;;;0.40;0.40;;;;;;;;;;5050508;28;20025;-82
2024/01/08 05:12:51;;;;;;;1.25;0.80;;;;;;;;;;5071198;28;20039;-81
2024/01/08 05:15:17;;;;;;;0.70;0.70;;;;;;;;;;5069048;28;20101;-82
2024/01/08 05:17:42;;;;;;;1.08;0.98;;;;;;;;;;5051701;28;20107;-81
2024/01/08 05:20:09;;;;;;;1.55;1.23;;;;;;;;;;5069516;28;20020;-82
2024/01/08 05:22:35;;;;;;;1.45;1.35;;;;;;;;;;5069899;28;20039;-80
2024/01/08 05:25:03;;;;;;;0.50;0.50;;;;;;;;;;5069233;28;20480;-82
2024/01/08 05:27:28;;;;;;;1.48;1.08;;;;;;;;;;5068746;28;20536;-83
2024/01/08 05:29:54;;;;;;;1.02;0.98;;;;;;;;;;5071186;28;20060;-81
2024/01/08 05:32:19;;;;;;;0.40;0.40;;;;;;;;;;5067561;28;20094;-82
2024/01/08 05:34:47;;;;;;;0.25;0.25;;;;;;;;;;5070234;28;20082;-80
2024/01/08 05:37:13;;;;;;;0.60;0.60;;;;;;;;;;5069088;28;20032;-82
2024/01/08 05:39:41;;;;;;;0.38;0.38;;;;;;;;;;5068113;28;20718;-80
2024/01/08 05:42:07;;;;;;;0.28;0.28;;;;;;;;;;5069237;28;20028;-81
2024/01/08 05:44:32;;;;;;;0.40;0.40;;;;;;;;;;5067767;28;20094;-81
2024/01/08 05:46:58;;;;;;;0.77;0.77;;;;;;;;;;5068074;28;20028;-80
2024/01/08 05:49:28;;;;;;;0.30;0.30;;;;;;;;;;5068563;28;20020;-78
2024/01/08 05:51:54;;;;;;;0.40;0.40;;;;;;;;;;5063849;28;20089;-82
2024/01/08 05:54:22;;;;;;;0.57;0.57;;;;;;;;;;5069583;28;20054;-83
2024/01/08 05:56:47;;;;;;;0.25;0.25;;;;;;;;;;5050495;28;20039;-81
2024/01/08 05:59:13;;;;;;;0.80;0.57;;;;;;;;;;5069718;28;20480;-80
2024/01/08 06:01:39;;;;;;;1.20;1.13;;;;;;;;;;5066975;28;20024;-84
2024/01/08 06:04:05;;;;;;;0.38;0.35;;;;;;;;;;5070679;28;20070;-82
2024/01/08 06:06:30;;;;;;;1.25;1.15;;;;;;;;;;5068756;28;20028;-80
2024/01/08 06:08:55;;;;;;;1.65;0.80;;;;;;;;;;5069654;28;20032;-80
2024/01/08 06:11:21;;;;;;;0.65;0.63;;;;;;;;;;5050761;28;20028;-80
2024/01/08 06:13:46;;;;;;;0.82;0.75;;;;;;;;;;5068219;28;20488;-81
2024/01/08 06:16:18;;;;;;;1.00;0.60;;;;;;;;;;5070024;28;20032;-84
2024/01/08 06:18:44;;;;;;;2.55;1.40;;;;;;;;;;5048718;28;20552;-84
2024/01/08 06:21:09;;;;;;;0.20;0.20;;;;;;;;;;5051634;28;20103;-85
2024/01/08 06:23:35;;;;;;;0.25;0.25;;;;;;;;;;5069043;28;20028;-83
2024/01/08 06:26:04;;;;;;;0.65;0.57;;;;;;;;;;5065562;28;20701;-81
2024/01/08 06:28:29;;;;;;;0.97;0.90;;;;;;;;;;5050136;28;20116;-78
2024/01/08 06:30:56;;;;;;;0.63;0.57;;;;;;;;;;5066894;28;20390;-80
2024/01/08 06:33:21;;;;;;;0.85;0.80;;;;;;;;;;5067404;28;20411;-83
2024/01/08 06:35:47;;;;;;;0.55;0.52;;;;;;;;;;5068280;28;20024;-82
2024/01/08 06:38:13;;;;;;;0.68;0.68;;;;;;;;;;5065625;28;20036;-81
2024/01/08 06:40:38;;;;;;;0.80;0.80;;;;;;;;;;5067324;28;20017;-82
2024/01/08 06:43:04;;;;;;;1.10;1.02;;;;;;;;;;5050619;28;20115;-81
2024/01/08 06:45:29;;;;;;;0.68;0.68;;;;;;;;;;5071522;28;20651;-81
2024/01/08 06:47:55;;;;;;;0.90;0.90;;;;;;;;;;5071708;28;20024;-85
2024/01/08 06:50:20;;;;;;;1.88;0.75;;;;;;;;;;5069068;28;20504;-82
2024/01/08 06:52:47;;;;;;;1.02;1.02;;;;;;;;;;5054954;28;20143;-84
2024/01/08 06:55:12;;;;;;;1.02;0.68;;;;;;;;;;5071477;28;20025;-83
2024/01/08 06:57:38;;;;;;;1.33;1.23;;;;;;;;;;5073092;28;20028;-82
2024/01/08 07:00:05;;;;;;;0.75;0.65;;;;;;;;;;5071672;28;20027;-82
2024/01/08 07:02:30;;;;;;;1.58;1.08;;;;;;;;;;5071891;28;20039;-81
2024/01/08 07:04:59;;;;;;;2.17;1.02;;;;;;;;;;5070860;28;20036;-82
2024/01/08 07:07:25;;;;;;;0.60;0.60;;;;;;;;;;5070013;28;20082;-79
2024/01/08 07:09:50;;;;;;;1.05;0.90;;;;;;;;;;5070628;28;20028;-81
2024/01/08 07:12:15;;;;;;;0.82;0.75;;;;;;;;;;5069835;28;20029;-81
2024/01/08 07:14:45;;;;;;;2.83;1.65;;;;;;;;;;5070735;28;20032;-80
2024/01/08 07:17:10;;;;;;;4.47;1.80;;;;;;;;;;5069749;28;20048;-81
2024/01/08 07:19:35;;;;;;;2.33;2.13;;;;;;;;;;5071701;28;20076;-82
2024/01/08 07:22:01;;;;;;;6.60;1.30;;;;;;;;;;5067166;28;20059;-81
2024/01/08 07:24:26;;;;;;;2.30;1.75;;;;;;;;;;5050791;28;20090;-80
2024/01/08 07:26:52;;;;;;;0.63;0.63;;;;;;;;;;5071335;28;20032;-82
2024/01/08 07:29:17;;;;;;;0.93;0.90;;;;;;;;;;5070910;28;20056;-81
2024/01/08 07:31:42;;;;;;;0.30;0.30;;;;;;;;;;5070079;28;20032;-81
2024/01/08 07:34:08;;;;;;;0.75;0.75;;;;;;;;;;5071185;28;20040;-81
2024/01/08 07:36:33;;;;;;;0.30;0.30;;;;;;;;;;5072242;28;20043;-81
2024/01/08 07:38:59;;;;;;;0.98;0.98;;;;;;;;;;5071459;28;20043;-81
2024/01/08 07:41:24;;;;;;;0.65;0.50;;;;;;;;;;5070466;28;20119;-80
2024/01/08 07:43:49;;;;;;;0.85;0.85;;;;;;;;;;5070681;28;20031;-81
2024/01/08 07:46:15;;;;;;;0.22;0.22;;;;;;;;;;5071464;28;20376;-80
2024/01/08 07:48:41;;;;;;;3.03;1.35;;;;;;;;;;5070743;28;20469;-81
2024/01/08 07:51:06;;;;;;;0.40;0.40;;;;;;;;;;5071734;28;20115;-81
2024/01/08 07:53:32;;;;;;;0.43;0.43;;;;;;;;;;5070153;28;20751;-81
2024/01/08 07:55:57;;;;;;;0.65;0.65;;;;;;;;;;5072038;28;20025;-82
2024/01/08 07:58:22;;;;;;;0.65;0.65;;;;;;;;;;5069993;28;20028;-79
2024/01/08 08:00:48;;;;;;;1.48;0.85;;;;;;;;;;5069901;28;20477;-78
2024/01/08 08:03:13;;;;;;;0.50;0.50;;;;;;;;;;5070132;28;20069;-81
2024/01/08 08:05:39;;;;;;;2.05;0.95;;;;;;;;;;5070785;28;20033;-80
2024/01/08 08:08:05;;;;;;;1.05;0.98;;;;;;;;;;5069769;28;20028;-79
2024/01/08 08:10:31;;;;;;;0.55;0.55;;;;;;;;;;5067328;28;20029;-78
2024/01/08 08:12:56;;;;;;;3.78;1.08;;;;;;;;;;5069546;28;20078;-79
2024/01/08 08:15:21;;;;;;;0.52;0.52;;;;;;;;;;5052583;28;20028;-80
2024/01/08 08:17:47;;;;;;;1.67;1.38;;;;;;;;;;5070336;28;20032;-78
2024/01/08 08:20:12;;;;;;;1.98;1.60;;;;;;;;;;5070604;28;20107;-78
2024/01/08 08:22:38;;;;;;;2.10;1.00;;;;;;;;;;5070104;28;20468;-78
2024/01/08 08:25:04;;;;;;;1.27;0.40;;;;;;;;;;5067705;28;20028;-78
2024/01/08 08:27:29;;;;;;;3.08;1.30;;;;;;;;;;5068111;28;20122;-78
2024/01/08 08:29:55;;;;;;;1.10;0.65;;;;;;;;;;5069860;28;20024;-78
2024/01/08 08:32:21;;;;;;;0.30;0.30;;;;;;;;;;5068574;28;20039;-77
2024/01/08 08:34:47;;;;;;;0.90;0.90;;;;;;;;;;5069880;28;20028;-78
2024/01/08 08:37:14;;;;;;;0.20;0.20;;;;;;;;;;5068707;28;20043;-79
2024/01/08 08:39:40;;;;;;;1.02;0.65;;;;;;;;;;5069721;28;20032;-80
2024/01/08 08:42:08;;;;;;;1.35;0.98;;;;;;;;;;5068878;28;20031;-78
2024/01/08 08:44:34;;;;;;;1.35;0.90;;;;;;;;;;5068703;28;20024;-79
2024/01/08 08:47:00;;;;;;;1.20;1.10;;;;;;;;;;5068669;28;20723;-79
2024/01/08 08:49:25;;;;;;;0.38;0.38;;;;;;;;;;5069775;28;20025;-79
2024/01/08 08:51:51;;;;;;;0.95;0.85;;;;;;;;;;5068787;28;20486;-78
2024/01/08 08:54:17;;;;;;;0.75;0.75;;;;;;;;;;5069698;28;20070;-79
2024/01/08 08:56:42;;;;;;;0.88;0.80;;;;;;;;;;5068678;28;20103;-78
2024/01/08 08:59:09;;;;;;;0.68;0.68;;;;;;;;;;5068778;28;20081;-78
2024/01/08 09:01:34;;;;;;;0.38;0.38;;;;;;;;;;5066939;28;20444;-78
2024/01/08 09:04:00;;;;;;;0.35;0.35;;;;;;;;;;5069657;28;20086;-79
2024/01/08 09:06:27;;;;;;;0.43;0.43;;;;;;;;;;5069267;28;20032;-81
2024/01/08 09:08:56;;;;;;;0.77;0.68;;;;;;;;;;5069852;28;20035;-78
2024/01/08 09:11:22;;;;;;;0.30;0.30;;;;;;;;;;5069634;28;20032;-81
2024/01/08 09:13:47;;;;;;;0.60;0.60;;;;;;;;;;5068771;28;20021;-79
2024/01/08 09:16:14;;;;;;;0.43;0.43;;;;;;;;;;5069070;28;20024;-79
2024/01/08 09:18:40;;;;;;;1.75;1.13;;;;;;;;;;5066958;28;20463;-79
2024/01/08 09:21:12;;;;;;;1.02;0.60;;;;;;;;;;5067573;28;20078;-78
2024/01/08 09:23:39;;;;;;;2.13;1.05;;;;;;;;;;5068682;28;20028;-80
2024/01/08 09:26:05;;;;;;;1.50;0.55;;;;;;;;;;5067537;28;20025;-78
2024/01/08 09:28:31;;;;;;;0.57;0.57;;;;;;;;;;5068550;28;20396;-79
2024/01/08 09:30:56;;;;;;;0.70;0.60;;;;;;;;;;5068513;28;20036;-78
2024/01/08 09:33:22;;;;;;;0.57;0.57;;;;;;;;;;5067144;28;20491;-77
2024/01/08 09:35:48;;;;;;;3.25;1.67;;;;;;;;;;5066420;28;20028;-79
2024/01/08 09:38:13;;;;;;;0.38;0.38;;;;;;;;;;5068687;28;20538;-79
2024/01/08 09:40:41;;;;;;;1.13;1.00;;;;;;;;;;5050110;28;20032;-80
2024/01/08 09:43:06;;;;;;;0.60;0.60;;;;;;;;;;5068743;28;20469;-79
2024/01/08 09:45:32;;;;;;;0.60;0.52;;;;;;;;;;5066722;28;20039;-79
2024/01/08 09:47:58;;;;;;;0.65;0.52;;;;;;;;;;5068101;28;20028;-80
2024/01/08 09:50:26;;;;;;;0.40;0.40;;;;;;;;;;5068107;28;20028;-79
2024/01/08 09:52:53;;;;;;;0.65;0.50;;;;;;;;;;5068188;28;20020;-78
2024/01/08 09:55:18;;;;;;;2.83;1.05;;;;;;;;;;5068107;28;20032;-78
2024/01/08 09:57:44;;;;;;;0.50;0.50;;;;;;;;;;5068599;28;20107;-79
2024/01/08 10:00:10;;;;;;;1.00;0.98;;;;;;;;;;5068451;28;20043;-79
2024/01/08 10:02:35;;;;;;;0.98;0.88;;;;;;;;;;5049412;28;20035;-79
2024/01/08 10:05:01;;;;;;;4.95;1.10;;;;;;;;;;5068401;28;20032;-79
2024/01/08 10:07:26;;;;;;;0.38;0.38;;;;;;;;;;5068492;28;20028;-78
2024/01/08 10:09:51;;;;;;;1.33;1.08;;;;;;;;;;5066756;28;20073;-79
2024/01/08 10:12:17;;;;;;;0.50;0.50;;;;;;;;;;5066741;28;20384;-78
2024/01/08 10:14:43;;;;;;;1.30;1.20;;;;;;;;;;5068259;28;20037;-79
2024/01/08 10:17:09;;;;;;;0.38;0.38;;;;;;;;;;5067591;28;20055;-78
2024/01/08 10:19:34;;;;;;;5.10;1.00;;;;;;;;;;5071565;28;20045;-81
2024/01/08 10:22:08;;;;;;;1.35;0.75;;;;;;;;;;5068906;28;20032;-80
2024/01/08 10:24:34;;;;;;;0.85;0.85;;;;;;;;;;5072148;28;20029;-79
2024/01/08 10:26:59;;;;;;;2.67;1.65;;;;;;;;;;5071104;28;20396;-80
2024/01/08 10:29:24;;;;;;;0.85;0.82;;;;;;;;;;5070975;28;20028;-78
2024/01/08 10:31:50;;;;;;;1.95;1.63;;;;;;;;;;5071073;28;20095;-80
2024/01/08 10:34:16;;;;;;;0.40;0.40;;;;;;;;;;5053877;28;20121;-78
2024/01/08 10:36:43;;;;;;;1.17;1.05;;;;;;;;;;5071972;28;20046;-77
2024/01/08 10:39:09;;;;;;;0.80;0.65;;;;;;;;;;5068826;28;20671;-78
2024/01/08 10:41:36;;;;;;;0.40;0.40;;;;;;;;;;5070546;28;20024;-79
2024/01/08 10:44:01;;;;;;;0.90;0.90;;;;;;;;;;5052517;28;20036;-80
2024/01/08 10:46:33;;;;;;;0.75;0.75;;;;;;;;;;5052843;28;20095;-79
2024/01/08 10:49:01;;;;;;;1.15;0.77;;;;;;;;;;5071786;28;20055;-80
2024/01/08 10:51:27;;;;;;;0.57;0.57;;;;;;;;;;5070048;28;20082;-79
2024/01/08 10:53:54;;;;;;;0.60;0.60;;;;;;;;;;5071626;28;20036;-80
2024/01/08 10:56:26;;;;;;;1.00;1.00;;;;;;;;;;5071041;28;20440;-78
2024/01/08 10:59:05;;;;;;;0.28;0.28;;;;;;;;;;5050914;28;20059;-79
2024/01/08 11:01:32;;;;;;;0.30;0.30;;;;;;;;;;5068999;28;20024;-79
2024/01/08 11:04:04;;;;;;;0.40;0.40;;;;;;;;;;5053425;28;20088;-78
2024/01/08 11:06:33;;;;;;;1.55;0.88;;;;;;;;;;5071628;28;20384;-80
2024/01/08 11:08:58;;;;;;;0.30;0.30;;;;;;;;;;5070379;28;20052;-81
2024/01/08 11:11:25;;;;;;;0.20;0.20;;;;;;;;;;5071337;28;20067;-79
2024/01/08 11:13:50;;;;;;;0.50;0.50;;;;;;;;;;5065221;28;20028;-79
2024/01/08 11:16:27;;;;;;;1.50;1.35;;;;;;;;;;5067571;28;20453;-79
2024/01/08 11:19:23;;;;;;;0.70;0.70;;;;;;;;;;5051967;28;20049;-78
2024/01/08 11:21:50;;;;;;;0.50;0.50;;;;;;;;;;5069100;28;20078;-80
2024/01/08 11:24:16;;;;;;;0.47;0.47;;;;;;;;;;5067562;28;20107;-78
2024/01/08 11:26:47;;;;;;;0.60;0.60;;;;;;;;;;5069603;28;20158;-81
2024/01/08 11:29:14;;;;;;;0.68;0.60;;;;;;;;;;5068514;28;20027;-78
2024/01/08 11:31:43;;;;;;;0.43;0.43;;;;;;;;;;5069001;28;20476;-78
2024/01/08 11:34:39;;;;;;;0.65;0.63;;;;;;;;;;5070332;28;20058;-78
2024/01/08 11:37:34;;;;;;;2.15;0.82;;;;;;;;;;5065634;28;20028;-79
2024/01/08 11:40:06;;;;;;;0.52;0.52;;;;;;;;;;5052999;28;20028;-80
2024/01/08 11:42:32;;;;;;;0.80;0.80;;;;;;;;;;5069090;28;20024;-80
2024/01/08 11:45:03;;;;;;;1.25;0.65;;;;;;;;;;5071079;28;20529;-79
2024/01/08 11:47:33;;;;;;;1.75;1.38;;;;;;;;;;5069761;28;20503;-79
2024/01/08 11:49:58;;;;;;;1.02;1.02;;;;;;;;;;5071832;28;21516;-79
2024/01/08 11:52:26;;;;;;;1.10;1.00;;;;;;;;;;5068439;28;20065;-79
2024/01/08 11:54:53;;;;;;;0.43;0.43;;;;;;;;;;5069475;28;20104;-78
2024/01/08 11:57:19;;;;;;;1.15;1.00;;;;;;;;;;5068421;28;20054;-78
2024/01/08 11:59:46;;;;;;;0.60;0.60;;;;;;;;;;5069585;28;20491;-79
2024/01/08 12:02:19;;;;;;;0.32;0.32;;;;;;;;;;5070616;28;20037;-79
2024/01/08 12:04:59;;;;;;;1.38;1.02;;;;;;;;;;5067475;28;20457;-79
2024/01/08 12:07:28;;;;;;;1.20;0.77;;;;;;;;;;5070785;28;20092;-80
2024/01/08 12:09:55;;;;;;;1.42;1.35;;;;;;;;;;5069190;28;20044;-79
2024/01/08 12:12:23;;;;;;;0.45;0.45;;;;;;;;;;5070368;28;20055;-80
2024/01/08 12:14:49;;;;;;;0.68;0.68;;;;;;;;;;5068366;28;20070;-79
2024/01/08 12:17:16;;;;;;;0.73;0.52;;;;;;;;;;5049658;28;20036;-78
2024/01/08 12:19:50;;;;;;;3.47;3.28;;;;;;;;;;5050880;28;20049;-81
2024/01/08 12:22:20;;;;;;;0.57;0.57;;;;;;;;;;5068626;28;20029;-80
2024/01/08 12:24:48;;;;;;;2.78;2.33;;;;;;;;;;5066832;28;20039;-79
2024/01/08 12:27:17;;;;;;;1.00;0.82;;;;;;;;;;5070785;28;20456;-80
2024/01/08 12:29:44;;;;;;;0.98;0.95;;;;;;;;;;5050838;28;20021;-81
2024/01/08 12:32:14;;;;;;;0.98;0.82;;;;;;;;;;5070283;28;20041;-78
2024/01/08 12:34:40;;;;;;;1.75;1.00;;;;;;;;;;5050234;28;20036;-78
2024/01/08 12:37:10;;;;;;;1.23;1.13;;;;;;;;;;5067703;28;20496;-79
2024/01/08 12:39:35;;;;;;;;;;;;;;;;;;5053314;28;20024;-78
2024/01/08 12:42:04;;;;;;;0.73;0.43;;;;;;;;;;5069770;28;19916;-78
2024/01/08 12:44:31;;;;;;;1.23;1.10;;;;;;;;;;5069645;28;20032;-78
2024/01/08 12:46:57;;;;;;;0.52;0.52;;;;;;;;;;5069372;28;20162;-79
2024/01/08 12:49:26;;;;;;;0.65;0.65;;;;;;;;;;5069027;28;20055;-79
2024/01/08 12:51:54;;;;;;;4.33;1.40;;;;;;;;;;5069368;28;20146;-78
2024/01/08 12:54:20;;;;;;;0.68;0.68;;;;;;;;;;5052825;28;20496;-79
2024/01/08 12:56:46;;;;;;;0.75;0.60;;;;;;;;;;5065379;28;20036;-79
2024/01/08 12:59:14;;;;;;;0.73;0.73;;;;;;;;;;5069369;28;20044;-79
2024/01/08 13:01:43;;;;;;;0.90;0.90;;;;;;;;;;5049462;28;20033;-80
2024/01/08 13:04:12;;;;;;;2.00;1.75;;;;;;;;;;5067658;28;21555;-79
2024/01/08 13:06:40;;;;;;;1.10;1.08;;;;;;;;;;5067294;28;20335;-80
2024/01/08 13:09:07;;;;;;;0.75;0.75;;;;;;;;;;5068011;28;20461;-79
2024/01/08 13:11:34;;;;;;;3.03;1.27;;;;;;;;;;5066605;28;20028;-79
2024/01/08 13:13:59;;;;;;;2.15;2.03;;;;;;;;;;5071915;28;20024;-78
2024/01/08 13:16:25;;;;;;;1.42;1.33;;;;;;;;;;5050750;28;20111;-81
2024/01/08 13:18:50;;;;;;;1.38;0.93;;;;;;;;;;5051352;28;20076;-79
2024/01/08 13:21:16;;;;;;;1.92;0.77;;;;;;;;;;5049011;28;20058;-80
2024/01/08 13:23:42;;;;;;;0.45;0.45;;;;;;;;;;5068014;28;20030;-79
2024/01/08 13:26:12;;;;;;;1.33;1.23;;;;;;;;;;5066236;28;20131;-80
2024/01/08 13:28:41;;;;;;;0.40;0.40;;;;;;;;;;5068640;28;20362;-79
2024/01/08 13:31:08;;;;;;;0.20;0.20;;;;;;;;;;5068151;28;20033;-81
2024/01/08 13:33:34;;;;;;;1.65;0.75;;;;;;;;;;5065368;28;20361;-81
2024/01/08 13:36:02;;;;;;;1.27;1.17;;;;;;;;;;5067091;28;20028;-79
2024/01/08 13:38:27;;;;;;;1.98;1.10;;;;;;;;;;5049181;28;20111;-79
2024/01/08 13:40:55;;;;;;;3.30;0.90;;;;;;;;;;5066623;28;20552;-82
2024/01/08 13:43:21;;;;;;;1.08;1.08;;;;;;;;;;5067409;28;20040;-82
2024/01/08 13:45:46;;;;;;;1.17;1.17;;;;;;;;;;5067625;28;20548;-79
2024/01/08 13:48:12;;;;;;;1.10;1.10;;;;;;;;;;5065447;28;20468;-82
2024/01/08 13:50:38;;;;;;;0.52;0.52;;;;;;;;;;5068476;28;20036;-80
2024/01/08 13:53:04;;;;;;;0.68;0.68;;;;;;;;;;5068799;28;20039;-80
2024/01/08 13:55:30;;;;;;;1.55;1.30;;;;;;;;;;5049734;28;20408;-80
2024/01/08 13:57:57;;;;;;;1.23;1.13;;;;;;;;;;5050225;28;20044;-79
2024/01/08 14:00:25;;;;;;;1.25;1.15;;;;;;;;;;5067738;28;20040;-82
2024/01/08 14:02:52;;;;;;;3.17;2.10;;;;;;;;;;5047566;28;20029;-80
2024/01/08 14:05:18;;;;;;;1.20;1.13;;;;;;;;;;5068510;28;20029;-81
2024/01/08 14:07:46;;;;;;;2.25;1.77;;;;;;;;;;5067986;28;20033;-82
2024/01/08 14:10:12;;;;;;;1.27;1.20;;;;;;;;;;5068174;28;20489;-80
2024/01/08 14:12:37;;;;;;;3.47;1.65;;;;;;;;;;5049750;28;20028;-82
2024/01/08 14:15:03;;;;;;;0.38;0.38;;;;;;;;;;5050256;28;20400;-83
2024/01/08 14:17:29;;;;;;;1.35;1.23;;;;;;;;;;5068145;28;20020;-81
2024/01/08 14:19:55;;;;;;;0.52;0.52;;;;;;;;;;5066134;28;20438;-79
2024/01/08 14:22:21;;;;;;;0.30;0.30;;;;;;;;;;5067367;28;20024;-81
2024/01/08 14:24:46;;;;;;;1.02;0.95;;;;;;;;;;5068006;28;20094;-81
2024/01/08 14:27:12;;;;;;;0.20;0.20;;;;;;;;;;5068642;28;20035;-80
2024/01/08 14:29:37;;;;;;;0.88;0.77;;;;;;;;;;5047695;28;20020;-80
2024/01/08 14:32:03;;;;;;;0.40;0.40;;;;;;;;;;5066440;28;20058;-79
2024/01/08 14:34:28;;;;;;;5.55;2.67;;;;;;;;;;5065318;28;22113;-80
2024/01/08 14:36:54;;;;;;;0.40;0.40;;;;;;;;;;5065814;28;20365;-79
2024/01/08 14:39:19;;;;;;;2.47;1.85;;;;;;;;;;5066528;28;20085;-81
2024/01/08 14:41:45;;;;;;;0.70;0.68;;;;;;;;;;5067967;28;20029;-82